createdAt,value
2018-05-09T04:51:19.957Z,49.92
2018-05-09T04:52:55.091Z,50.89
2018-05-09T04:54:30.158Z,52.43
2018-05-09T04:56:05.232Z,53.79
2018-05-09T04:57:40.376Z,54.80
2018-05-09T04:59:15.588Z,55.93
2018-05-09T05:00:50.671Z,56.66
2018-05-09T05:02:27.527Z,56.91
2018-05-09T05:04:02.601Z,57.66
2018-05-09T05:05:37.723Z,58.32
2018-05-09T05:07:12.799Z,58.25
2018-05-09T05:08:47.871Z,59.04
2018-05-09T05:10:22.967Z,59.09
2018-05-09T05:11:58.122Z,59.28
2018-05-09T05:13:33.246Z,59.67
2018-05-09T05:15:08.340Z,60.05
2018-05-09T05:16:43.500Z,60.24
2018-05-09T05:18:18.504Z,60.33
2018-05-09T05:19:56.945Z,60.47
2018-05-09T05:21:32.001Z,60.96
2018-05-09T05:23:07.052Z,61.38
2018-05-09T05:24:42.130Z,61.49
2018-05-09T05:26:17.206Z,61.92
2018-05-09T05:27:53.143Z,61.75
2018-05-09T05:29:28.200Z,61.37
2018-05-09T05:31:03.297Z,61.14
2018-05-09T05:32:39.162Z,61.76
2018-05-09T05:34:14.208Z,62.00
2018-05-09T05:35:49.274Z,61.72
2018-05-09T05:37:25.150Z,61.67
2018-05-09T05:39:00.225Z,61.48
2018-05-09T05:40:35.295Z,61.23
2018-05-09T05:42:10.370Z,61.31
2018-05-09T05:43:45.427Z,61.58
2018-05-09T05:45:20.585Z,61.18
2018-05-09T05:46:55.719Z,61.71
2018-05-09T05:48:31.564Z,61.85
2018-05-09T05:50:06.666Z,61.96
2018-05-09T05:51:41.840Z,62.70
2018-05-09T05:53:16.923Z,62.98
2018-05-09T05:54:52.903Z,62.58
2018-05-09T05:56:27.955Z,62.89
2018-05-09T05:58:03.053Z,62.41
2018-05-09T05:59:38.124Z,61.62
2018-05-09T06:01:13.954Z,60.82
2018-05-09T06:02:49.058Z,60.39
2018-05-09T06:04:24.111Z,60.23
2018-05-09T06:05:59.163Z,60.11
2018-05-09T06:07:34.238Z,59.77
2018-05-09T06:09:09.310Z,59.90
2018-05-09T06:10:44.368Z,60.10
2018-05-09T06:12:19.466Z,59.61
2018-05-09T06:13:55.274Z,58.95
2018-05-09T06:15:31.096Z,58.47
2018-05-09T06:17:06.189Z,57.93
2018-05-09T06:18:41.220Z,57.54
2018-05-09T06:20:16.373Z,56.78
2018-05-09T06:21:51.605Z,56.71
2018-05-09T06:23:26.864Z,56.26
2018-05-09T06:25:01.957Z,56.00
2018-05-09T06:26:37.049Z,55.51
2018-05-09T06:28:12.101Z,54.64
2018-05-09T06:29:47.183Z,54.79
2018-05-09T06:31:22.232Z,55.34
2018-05-09T06:32:57.304Z,55.68
2018-05-09T06:34:32.413Z,56.03
2018-05-09T06:36:08.231Z,56.18
2018-05-09T06:37:43.352Z,56.30
2018-05-09T06:39:19.139Z,55.77
2018-05-09T06:40:55.065Z,55.12
2018-05-09T06:42:30.131Z,54.90
2018-05-09T06:44:05.970Z,54.64
2018-05-09T06:45:41.064Z,54.76
2018-05-09T06:47:16.128Z,54.15
2018-05-09T06:48:51.341Z,53.61
2018-05-09T06:50:26.417Z,53.26
2018-05-09T06:52:02.033Z,51.76
2018-05-09T06:53:37.097Z,50.85
2018-05-09T06:55:12.433Z,50.68
2018-05-09T06:56:47.484Z,50.04
2018-05-09T06:58:23.319Z,49.30
2018-05-09T06:59:58.435Z,48.84
2018-05-09T07:01:33.558Z,48.84
2018-05-09T07:03:08.631Z,49.47
2018-05-09T07:04:43.681Z,50.58
2018-05-09T07:06:18.895Z,51.00
2018-05-09T07:07:54.427Z,50.94
2018-05-09T07:09:29.487Z,50.45
2018-05-09T07:11:04.678Z,50.44
2018-05-09T07:12:39.739Z,49.68
2018-05-09T07:15:56.038Z,48.40
2018-05-09T07:17:31.130Z,47.86
2018-05-09T07:19:06.179Z,48.22
2018-05-09T07:20:41.244Z,48.04
2018-05-09T07:22:16.403Z,48.39
2018-05-09T07:23:51.558Z,48.83
2018-05-09T07:25:26.612Z,48.38
2018-05-09T07:27:01.665Z,47.84
2018-05-09T07:28:36.754Z,48.24
2018-05-09T07:30:11.864Z,47.92
2018-05-09T07:31:46.917Z,48.10
2018-05-09T07:33:22.745Z,47.20
2018-05-09T07:34:57.814Z,46.91
2018-05-09T07:36:32.910Z,47.13
2018-05-09T07:38:08.766Z,47.18
2018-05-09T07:39:43.871Z,47.07
2018-05-09T07:41:18.923Z,46.46
2018-05-09T07:42:54.675Z,46.12
2018-05-09T07:44:29.773Z,45.73
2018-05-09T07:46:04.831Z,46.07
2018-05-09T07:47:40.040Z,46.82
2018-05-09T07:49:15.001Z,48.14
2018-05-09T07:50:50.071Z,48.36
2018-05-09T07:52:25.474Z,49.07
2018-05-09T07:54:01.305Z,48.57
2018-05-09T07:55:36.401Z,49.62
2018-05-09T07:57:11.450Z,49.32
2018-05-09T07:58:46.501Z,49.76
2018-05-09T08:00:21.599Z,48.78
2018-05-09T08:01:56.678Z,49.97
2018-05-09T08:03:31.731Z,49.89
2018-05-09T08:05:06.813Z,50.20
2018-05-09T08:06:41.869Z,49.02
2018-05-09T08:08:16.919Z,48.76
2018-05-09T08:09:52.226Z,48.52
2018-05-09T08:11:27.278Z,47.83
2018-05-09T08:13:02.372Z,47.07
2018-05-09T08:14:37.454Z,46.07
2018-05-09T08:16:12.561Z,44.92
2018-05-09T08:17:47.621Z,45.02
2018-05-09T08:19:23.437Z,44.56
2018-05-09T08:20:58.482Z,44.27
2018-05-09T08:22:34.333Z,43.67
2018-05-09T08:24:09.376Z,43.36
2018-05-09T08:25:44.424Z,42.67
2018-05-09T08:27:19.512Z,42.98
2018-05-09T08:28:55.333Z,42.27
2018-05-09T08:30:30.421Z,42.28
2018-05-09T08:32:05.528Z,42.09
2018-05-09T08:33:40.598Z,43.32
2018-05-09T08:35:15.698Z,43.75
2018-05-09T08:36:50.751Z,44.66
2018-05-09T08:38:26.512Z,45.82
2018-05-09T08:40:01.562Z,45.78
2018-05-09T08:41:37.394Z,45.95
2018-05-09T08:43:12.503Z,46.31
2018-05-09T08:44:47.583Z,45.15
2018-05-09T08:46:22.668Z,44.47
2018-05-09T08:47:57.789Z,43.87
2018-05-09T08:49:32.870Z,44.05
2018-05-09T08:51:07.925Z,44.02
2018-05-09T08:52:42.996Z,43.95
2018-05-09T08:54:18.143Z,43.48
2018-05-09T08:55:53.832Z,43.30
2018-05-09T08:57:28.902Z,43.25
2018-05-09T08:59:03.960Z,43.49
2018-05-09T09:00:39.057Z,43.38
2018-05-09T09:02:14.137Z,43.33
2018-05-09T09:03:49.193Z,44.57
2018-05-09T09:05:25.047Z,44.41
2018-05-09T09:07:00.118Z,45.34
2018-05-09T09:08:35.193Z,45.91
2018-05-09T09:10:10.408Z,45.57
2018-05-09T09:11:45.493Z,46.58
2018-05-09T09:13:20.542Z,46.44
2018-05-09T09:14:56.405Z,46.41
2018-05-09T09:16:31.468Z,46.96
2018-05-09T09:18:07.550Z,47.79
2018-05-09T09:19:42.608Z,47.10
2018-05-09T09:21:18.491Z,46.52
2018-05-09T09:22:54.989Z,47.28
2018-05-09T09:24:30.091Z,47.52
2018-05-09T09:26:05.165Z,47.72
2018-05-09T09:27:40.235Z,47.97
2018-05-09T09:29:15.337Z,48.65
2018-05-09T09:30:51.118Z,48.48
2018-05-09T09:32:26.810Z,48.57
2018-05-09T09:34:01.878Z,48.38
2018-05-09T09:35:36.985Z,47.47
2018-05-09T09:37:12.035Z,48.05
2018-05-09T09:38:47.110Z,46.98
2018-05-09T09:40:22.206Z,47.16
2018-05-09T09:41:57.279Z,47.37
2018-05-09T09:43:33.149Z,46.79
2018-05-09T09:45:08.211Z,47.23
2018-05-09T09:46:43.278Z,47.61
2018-05-09T09:48:18.341Z,47.66
2018-05-09T09:49:54.101Z,46.86
2018-05-09T09:51:29.219Z,46.74
2018-05-09T09:53:04.278Z,46.82
2018-05-09T09:54:39.329Z,47.25
2018-05-09T09:56:14.395Z,46.69
2018-05-09T09:57:49.467Z,46.64
2018-05-09T09:59:24.580Z,46.98
2018-05-09T10:01:00.416Z,47.49
2018-05-09T10:02:35.453Z,47.01
2018-05-09T10:04:10.552Z,46.76
2018-05-09T10:05:45.598Z,46.36
2018-05-09T10:07:20.661Z,46.64
2018-05-09T10:08:55.731Z,46.11
2018-05-09T10:10:30.804Z,44.69
2018-05-09T10:12:05.861Z,44.64
2018-05-09T10:13:40.960Z,44.25
2018-05-09T10:15:16.075Z,43.91
2018-05-09T10:16:51.135Z,44.25
2018-05-09T10:18:27.094Z,45.04
2018-05-09T10:20:02.190Z,45.37
2018-05-09T10:21:37.245Z,45.04
2018-05-09T10:23:12.394Z,44.82
2018-05-09T10:24:47.405Z,44.88
2018-05-09T10:26:22.450Z,44.68
2018-05-09T10:27:57.510Z,44.83
2018-05-09T10:29:32.555Z,44.72
2018-05-09T10:31:08.022Z,45.35
2018-05-09T10:32:43.858Z,45.24
2018-05-09T10:34:18.931Z,45.24
2018-05-09T10:35:54.692Z,45.22
2018-05-09T10:37:29.741Z,45.22
2018-05-09T10:39:05.525Z,44.47
2018-05-09T10:40:41.420Z,43.97
2018-05-09T10:42:16.464Z,42.83
2018-05-09T10:43:51.541Z,42.46
2018-05-09T10:45:26.639Z,42.45
2018-05-09T10:47:01.684Z,42.67
2018-05-09T10:48:37.558Z,42.73
2018-05-09T10:50:12.649Z,42.68
2018-05-09T10:51:47.716Z,42.86
2018-05-09T10:53:23.555Z,41.74
2018-05-09T10:54:58.604Z,40.64
2018-05-09T10:56:33.676Z,40.52
2018-05-09T10:58:09.321Z,40.94
2018-05-09T10:59:44.368Z,41.17
2018-05-09T11:01:19.455Z,41.05
2018-05-09T11:02:55.282Z,41.29
2018-05-09T11:04:30.343Z,41.96
2018-05-09T11:06:05.425Z,42.16
2018-05-09T11:07:40.505Z,42.27
2018-05-09T11:09:15.608Z,42.74
2018-05-09T11:10:50.738Z,42.82
2018-05-09T11:12:26.480Z,42.97
2018-05-09T11:14:01.624Z,43.17
2018-05-09T11:15:36.747Z,42.98
2018-05-09T11:17:11.845Z,43.05
2018-05-09T11:18:46.925Z,42.65
2018-05-09T11:20:22.040Z,42.42
2018-05-09T11:21:57.122Z,42.32
2018-05-09T11:23:32.180Z,42.14
2018-05-09T11:25:07.245Z,42.51
2018-05-09T11:26:42.342Z,42.87
2018-05-09T11:28:18.168Z,43.10
2018-05-09T11:29:54.134Z,42.62
2018-05-09T11:31:29.208Z,42.42
2018-05-09T11:33:04.322Z,42.54
2018-05-09T11:34:39.380Z,42.12
2018-05-09T11:36:14.442Z,41.79
2018-05-09T11:37:49.507Z,41.75
2018-05-09T11:39:24.577Z,41.38
2018-05-09T11:40:59.638Z,41.48
2018-05-09T11:42:34.703Z,41.22
2018-05-09T11:44:09.785Z,41.59
2018-05-09T11:45:44.850Z,40.83
2018-05-09T11:47:19.897Z,41.43
2018-05-09T11:48:55.685Z,41.51
2018-05-09T11:50:30.749Z,41.83
2018-05-09T11:52:05.805Z,41.60
2018-05-09T11:53:40.894Z,41.20
2018-05-09T11:55:15.990Z,41.19
2018-05-09T11:56:51.061Z,41.71
2018-05-09T11:58:26.753Z,41.14
2018-05-09T12:00:01.824Z,41.12
2018-05-09T12:01:36.856Z,41.68
2018-05-09T12:03:11.955Z,41.68
2018-05-09T12:04:47.015Z,41.21
2018-05-09T12:06:22.090Z,41.13
2018-05-09T12:07:57.162Z,41.51
2018-05-09T12:09:32.224Z,41.30
2018-05-09T12:11:07.273Z,41.71
2018-05-09T12:12:42.377Z,42.03
2018-05-09T12:14:17.456Z,42.33
2018-05-09T12:15:53.319Z,41.98
2018-05-09T12:17:28.384Z,42.32
2018-05-09T12:19:03.489Z,41.36
2018-05-09T12:20:38.575Z,41.56
2018-05-09T12:22:13.627Z,41.43
2018-05-09T12:23:48.701Z,42.29
2018-05-09T12:25:23.778Z,42.50
2018-05-09T12:26:58.828Z,42.75
2018-05-09T12:28:33.888Z,42.78
2018-05-09T12:30:08.970Z,42.50
2018-05-09T12:31:44.025Z,42.87
2018-05-09T12:33:19.119Z,42.84
2018-05-09T12:34:54.894Z,43.18
2018-05-09T12:36:30.976Z,43.80
2018-05-09T12:38:06.745Z,43.07
2018-05-09T12:39:42.103Z,43.10
2018-05-09T12:41:17.229Z,43.12
2018-05-09T12:42:54.703Z,43.26
2018-05-09T12:44:29.918Z,42.86
2018-05-09T12:46:05.196Z,43.21
2018-05-09T12:47:40.499Z,43.70
2018-05-09T12:49:15.537Z,42.98
2018-05-09T12:50:51.484Z,42.84
2018-05-09T12:52:27.599Z,42.40
2018-05-09T12:54:02.700Z,42.59
2018-05-09T12:55:38.358Z,42.56
2018-05-09T12:57:17.285Z,41.82
2018-05-09T12:58:54.292Z,42.02
2018-05-09T13:00:29.855Z,42.09
2018-05-09T13:02:06.027Z,41.66
2018-05-09T13:03:41.309Z,42.71
2018-05-09T13:05:16.739Z,41.24
2018-05-09T13:06:55.322Z,40.88
2018-05-09T13:08:30.720Z,41.13
2018-05-09T13:10:07.190Z,41.27
2018-05-09T13:11:43.784Z,40.67
2018-05-09T13:13:18.871Z,40.45
2018-05-09T13:14:54.626Z,40.47
2018-05-09T13:16:29.686Z,39.98
2018-05-09T13:18:05.516Z,39.66
2018-05-09T13:19:40.962Z,39.08
2018-05-09T13:21:15.993Z,39.73
2018-05-09T13:22:51.055Z,39.28
2018-05-09T13:24:27.454Z,40.10
2018-05-09T13:26:02.500Z,40.43
2018-05-09T13:27:37.562Z,40.47
2018-05-09T13:29:12.661Z,39.88
2018-05-09T13:30:47.721Z,39.17
2018-05-09T13:32:22.822Z,39.71
2018-05-09T13:33:57.939Z,39.62
2018-05-09T13:35:33.006Z,40.32
2018-05-09T13:37:08.065Z,40.12
2018-05-09T13:38:43.161Z,40.09
2018-05-09T13:40:18.228Z,39.26
2018-05-09T13:41:54.209Z,38.64
2018-05-09T13:43:32.493Z,38.61
2018-05-09T13:45:08.136Z,38.50
2018-05-09T13:46:45.497Z,39.41
2018-05-09T13:48:22.634Z,39.72
2018-05-09T13:49:59.116Z,39.24
2018-05-09T13:51:35.152Z,38.50
2018-05-09T13:53:12.069Z,37.98
2018-05-09T13:54:48.559Z,38.43
2018-05-09T13:56:24.583Z,38.53
2018-05-09T13:58:01.169Z,38.23
2018-05-09T13:59:40.370Z,37.60
2018-05-09T14:01:20.718Z,37.20
2018-05-09T14:03:01.723Z,37.37
2018-05-09T14:04:40.833Z,37.61
2018-05-09T14:06:19.621Z,38.06
2018-05-09T14:07:58.497Z,38.37
2018-05-09T14:09:37.207Z,38.21
2018-05-09T14:11:12.959Z,37.68
2018-05-09T14:15:08.800Z,37.57
2018-05-09T14:16:45.205Z,37.34
2018-05-09T14:18:20.523Z,37.37
2018-05-09T14:19:57.379Z,37.68
2018-05-09T14:21:32.631Z,37.33
2018-05-09T14:23:08.502Z,37.46
2018-05-09T14:24:44.618Z,37.26
2018-05-09T14:26:20.529Z,37.58
2018-05-09T14:27:55.994Z,37.62
2018-05-09T14:29:31.570Z,37.70
2018-05-09T14:31:07.890Z,37.92
2018-05-09T14:32:43.344Z,37.82
2018-05-09T14:34:21.064Z,37.69
2018-05-09T14:35:56.679Z,37.92
2018-05-09T14:37:32.869Z,37.76
2018-05-09T14:39:17.841Z,37.92
2018-05-09T14:40:57.369Z,38.27
2018-05-09T14:42:34.419Z,38.34
2018-05-09T14:44:09.985Z,38.50
2018-05-09T14:45:51.116Z,38.91
2018-05-09T14:47:29.607Z,39.04
2018-05-09T14:49:11.052Z,39.94
2018-05-09T14:50:54.513Z,39.36
2018-05-09T14:52:41.443Z,39.01
2018-05-09T14:54:20.643Z,38.68
2018-05-09T14:55:59.889Z,39.17
2018-05-09T14:57:39.591Z,38.98
2018-05-09T14:59:21.570Z,39.30
2018-05-09T15:00:59.137Z,39.12
2018-05-09T15:02:37.440Z,38.83
2018-05-09T15:04:17.962Z,38.46
2018-05-09T15:06:07.383Z,37.90
2018-05-09T15:07:49.114Z,38.05
2018-05-09T15:09:28.764Z,37.88
2018-05-09T15:11:10.953Z,37.91
2018-05-09T15:12:55.654Z,38.34
2018-05-09T15:14:36.521Z,38.58
2018-05-09T15:16:15.535Z,38.38
2018-05-09T15:17:53.636Z,38.23
2018-05-09T15:19:30.145Z,38.15
2018-05-09T15:21:06.528Z,38.22
2018-05-09T15:22:45.253Z,38.60
2018-05-09T15:24:23.490Z,38.71
2018-05-09T15:26:01.416Z,38.46
2018-05-09T15:27:37.987Z,38.60
2018-05-09T15:29:14.957Z,38.70
2018-05-09T15:30:54.814Z,38.41
2018-05-09T15:32:31.490Z,38.38
2018-05-09T15:34:08.859Z,38.37
2018-05-09T15:35:45.553Z,38.33
2018-05-09T15:37:23.279Z,38.45
2018-05-09T15:39:00.623Z,38.29
2018-05-09T15:40:37.765Z,38.63
2018-05-09T15:42:15.319Z,38.81
2018-05-09T15:43:53.374Z,38.00
2018-05-09T15:45:33.778Z,37.90
2018-05-09T15:47:11.833Z,38.42
2018-05-09T15:48:50.003Z,38.29
2018-05-09T15:50:28.864Z,38.13
2018-05-09T15:52:05.758Z,37.88
2018-05-09T15:53:43.281Z,38.05
2018-05-09T15:55:18.338Z,38.08
2018-05-09T15:56:59.271Z,38.19
2018-05-09T15:58:36.589Z,38.32
2018-05-09T16:00:14.531Z,37.22
2018-05-09T16:01:51.661Z,37.21
2018-05-09T16:03:28.244Z,37.02
2018-05-09T16:05:04.638Z,36.93
2018-05-09T16:06:42.761Z,36.54
2018-05-09T16:08:20.639Z,36.25
2018-05-09T16:09:59.305Z,36.04
2018-05-09T16:11:38.580Z,36.03
2018-05-09T16:13:18.672Z,36.12
2018-05-09T16:14:57.256Z,36.44
2018-05-09T16:16:36.033Z,36.43
2018-05-09T16:18:15.315Z,36.46
2018-05-09T16:19:54.178Z,36.50
2018-05-09T16:21:32.940Z,36.64
2018-05-09T16:23:10.496Z,36.83
2018-05-09T16:24:49.003Z,36.59
2018-05-09T16:26:24.048Z,36.76
2018-05-09T16:28:00.992Z,36.45
2018-05-09T16:29:40.931Z,36.56
2018-05-09T16:31:21.427Z,37.14
2018-05-09T16:32:58.505Z,37.10
2018-05-09T16:34:35.015Z,36.60
2018-05-09T16:36:11.983Z,35.87
2018-05-09T16:37:52.950Z,36.16
2018-05-09T16:39:31.310Z,36.80
2018-05-09T16:41:08.141Z,38.09
2018-05-09T16:42:47.773Z,38.71
2018-05-09T16:44:29.742Z,39.14
2018-05-09T16:46:06.755Z,39.41
2018-05-09T16:47:44.913Z,39.88
2018-05-09T16:49:22.822Z,39.56
2018-05-09T16:51:05.160Z,39.45
2018-05-09T16:52:43.486Z,39.41
2018-05-09T16:54:20.841Z,39.84
2018-05-09T16:56:03.751Z,40.29
2018-05-09T16:57:40.014Z,41.70
2018-05-09T16:59:17.423Z,42.47
2018-05-09T17:00:54.285Z,43.06
2018-05-09T17:02:30.071Z,43.41
2018-05-09T17:04:05.159Z,43.92
2018-05-09T17:05:40.250Z,44.29
2018-05-09T17:07:16.291Z,44.18
2018-05-09T17:08:51.296Z,44.40
2018-05-09T17:10:32.135Z,44.28
2018-05-09T17:12:07.971Z,44.43
2018-05-09T17:13:43.028Z,44.47
2018-05-09T17:15:18.139Z,44.69
2018-05-09T17:16:53.289Z,44.75
2018-05-09T17:18:28.501Z,44.87
2018-05-09T17:20:03.804Z,44.99
2018-05-09T17:24:02.983Z,45.39
2018-05-09T17:25:38.112Z,45.39
2018-05-09T17:27:13.221Z,45.51
2018-05-09T17:28:48.277Z,45.57
2018-05-09T17:30:25.090Z,45.81
2018-05-09T17:32:03.545Z,45.92
2018-05-09T17:33:40.228Z,45.86
2018-05-09T17:35:16.059Z,46.01
2018-05-09T17:36:55.905Z,46.01
2018-05-09T17:38:34.182Z,46.21
2018-05-09T17:40:12.146Z,46.34
2018-05-09T17:41:54.618Z,46.10
2018-05-09T17:43:33.326Z,46.01
2018-05-09T17:45:08.587Z,46.08
2018-05-09T17:46:45.422Z,46.08
2018-05-09T17:48:22.173Z,46.30
2018-05-09T17:49:59.992Z,46.23
2018-05-09T17:51:44.929Z,46.21
2018-05-09T17:55:17.322Z,46.30
2018-05-09T17:56:52.443Z,46.15
2018-05-09T17:58:28.342Z,46.26
2018-05-09T18:00:07.562Z,46.28
2018-05-09T18:01:48.269Z,46.37
2018-05-09T18:03:26.164Z,46.46
2018-05-09T18:05:06.497Z,46.90
2018-05-09T18:06:46.639Z,47.04
2018-05-09T18:08:22.784Z,47.36
2018-05-09T18:09:58.736Z,47.41
2018-05-09T18:11:34.091Z,47.61
2018-05-09T18:13:10.309Z,47.80
2018-05-09T18:14:49.007Z,48.48
2018-05-09T18:16:28.321Z,48.41
2018-05-09T18:18:06.723Z,48.39
2018-05-09T18:19:43.801Z,48.91
2018-05-09T18:21:20.235Z,49.14
2018-05-09T18:22:57.405Z,49.23
2018-05-09T18:24:35.517Z,49.37
2018-05-09T18:26:14.910Z,49.27
2018-05-09T18:27:50.490Z,49.55
2018-05-09T18:29:28.008Z,49.50
2018-05-09T18:31:05.458Z,49.63
2018-05-09T18:32:41.845Z,49.65
2018-05-09T18:34:18.340Z,50.01
2018-05-09T18:35:53.465Z,50.97
2018-05-09T18:37:30.933Z,51.55
2018-05-09T18:39:11.235Z,51.89
2018-05-09T18:40:47.298Z,52.67
2018-05-09T18:42:26.922Z,52.44
2018-05-09T18:44:05.691Z,52.26
2018-05-09T18:45:44.024Z,52.94
2018-05-09T18:47:24.706Z,52.01
2018-05-09T18:49:01.607Z,52.40
2018-05-09T18:50:43.150Z,53.93
2018-05-09T18:52:22.539Z,55.12
2018-05-09T18:54:00.644Z,55.61
2018-05-09T18:55:39.799Z,56.33
2018-05-09T18:57:23.451Z,56.73
2018-05-09T18:58:59.878Z,56.72
2018-05-09T19:00:36.109Z,56.21
2018-05-09T19:02:14.767Z,55.70
2018-05-09T19:03:51.694Z,56.02
2018-05-09T19:05:30.448Z,56.11
2018-05-09T19:07:08.935Z,56.24
2018-05-09T19:09:01.932Z,56.13
2018-05-09T19:10:39.962Z,56.68
2018-05-09T19:12:22.162Z,56.91
2018-05-09T19:14:01.756Z,57.01
2018-05-09T19:15:43.641Z,57.32
2018-05-09T19:17:20.500Z,57.31
2018-05-09T19:18:58.839Z,57.76
2018-05-09T19:20:37.090Z,57.80
2018-05-09T19:22:14.974Z,57.97
2018-05-09T19:23:53.508Z,58.28
2018-05-09T19:25:37.808Z,58.69
2018-05-09T19:27:17.077Z,59.08
2018-05-09T19:28:55.548Z,59.22
2018-05-09T19:30:35.945Z,59.34
2018-05-09T19:32:13.154Z,59.37
2018-05-09T19:33:53.252Z,59.56
2018-05-09T19:35:31.357Z,59.46
2018-05-09T19:37:10.270Z,59.55
2018-05-09T19:38:47.561Z,59.96
2018-05-09T19:40:26.411Z,59.99
2018-05-09T19:42:05.354Z,60.25
2018-05-09T19:43:43.656Z,60.27
2018-05-09T19:45:20.277Z,60.19
2018-05-09T19:46:56.233Z,60.43
2018-05-09T19:48:35.066Z,60.32
2018-05-09T19:50:12.438Z,60.16
2018-05-09T19:51:50.092Z,60.17
2018-05-09T19:53:29.600Z,59.83
2018-05-09T19:55:08.026Z,59.69
2018-05-09T19:56:45.264Z,60.00
2018-05-09T19:58:24.154Z,59.86
2018-05-09T20:00:05.256Z,59.96
2018-05-09T20:01:41.889Z,59.93
2018-05-09T20:03:20.019Z,60.39
2018-05-09T20:05:02.896Z,60.38
2018-05-09T20:06:46.303Z,60.40
2018-05-09T20:08:26.186Z,60.09
2018-05-09T20:10:05.521Z,59.74
2018-05-09T20:11:43.202Z,59.81
2018-05-09T20:13:22.721Z,60.43
2018-05-09T20:15:02.355Z,60.60
2018-05-09T20:16:41.010Z,60.56
2018-05-09T20:18:18.985Z,61.08
2018-05-09T20:19:59.007Z,61.65
2018-05-09T20:21:36.884Z,61.82
2018-05-09T20:23:14.507Z,61.92
2018-05-09T20:24:54.022Z,61.67
2018-05-09T20:26:33.796Z,61.67
2018-05-09T20:28:12.024Z,61.79
2018-05-09T20:29:52.253Z,61.53
2018-05-09T20:31:52.857Z,61.19
2018-05-09T20:33:31.781Z,61.12
2018-05-09T20:35:12.892Z,61.45
2018-05-09T20:36:51.800Z,61.27
2018-05-09T20:38:30.710Z,61.11
2018-05-09T20:40:09.900Z,61.07
2018-05-09T20:41:46.506Z,61.25
2018-05-09T20:43:23.208Z,61.28
2018-05-09T20:44:58.873Z,61.33
2018-05-09T20:46:37.615Z,61.48
2018-05-09T20:48:14.681Z,61.29
2018-05-09T20:49:52.856Z,61.40
2018-05-09T20:51:47.068Z,61.53
2018-05-09T20:53:24.611Z,61.73
2018-05-09T20:57:29.407Z,62.29
2018-05-09T20:59:06.784Z,62.44
2018-05-09T21:00:43.611Z,62.52
2018-05-09T21:02:19.914Z,62.69
2018-05-09T21:03:57.279Z,62.94
2018-05-09T21:05:34.183Z,63.29
2018-05-09T21:07:12.071Z,63.21
2018-05-09T21:08:48.552Z,63.26
2018-05-09T21:10:26.884Z,63.21
2018-05-09T21:12:10.820Z,63.21
2018-05-09T21:13:47.825Z,63.42
2018-05-09T21:15:25.128Z,63.58
2018-05-09T21:17:02.065Z,63.55
2018-05-09T21:18:41.383Z,63.45
2018-05-09T21:20:20.069Z,63.65
2018-05-09T21:21:56.023Z,63.69
2018-05-09T21:23:32.474Z,63.93
2018-05-09T21:25:11.792Z,64.08
2018-05-09T21:26:49.755Z,64.38
2018-05-09T21:28:28.887Z,64.41
2018-05-09T21:30:04.929Z,64.25
2018-05-09T21:31:41.505Z,64.15
2018-05-09T21:33:25.651Z,63.95
2018-05-09T21:35:02.346Z,64.10
2018-05-09T21:36:39.428Z,64.05
2018-05-09T21:38:18.245Z,63.87
2018-05-09T21:39:58.108Z,63.79
2018-05-09T21:41:37.206Z,63.84
2018-05-09T21:43:15.650Z,63.91
2018-05-09T21:44:52.077Z,63.90
2018-05-09T21:46:30.483Z,64.14
2018-05-09T21:48:07.098Z,64.17
2018-05-09T21:49:44.293Z,63.91
2018-05-09T21:51:20.473Z,64.04
2018-05-09T21:52:58.785Z,64.18
2018-05-09T21:54:36.483Z,64.29
2018-05-09T21:56:12.641Z,64.36
2018-05-09T21:57:48.467Z,64.37
2018-05-09T21:59:26.453Z,64.18
2018-05-09T22:01:05.638Z,64.17
2018-05-09T22:02:42.348Z,64.27
2018-05-09T22:04:22.520Z,64.44
2018-05-09T22:05:57.825Z,65.12
2018-05-09T22:07:36.845Z,64.50
2018-05-09T22:09:16.171Z,64.78
2018-05-09T22:10:53.293Z,65.31
2018-05-09T22:12:30.375Z,65.59
2018-05-09T22:14:14.047Z,65.66
2018-05-09T22:15:53.292Z,66.05
2018-05-09T22:17:31.394Z,66.31
2018-05-09T22:19:11.404Z,66.02
2018-05-09T22:20:49.913Z,65.90
2018-05-09T22:22:27.796Z,65.58
2018-05-09T22:24:09.881Z,65.14
2018-05-09T22:25:48.395Z,65.24
2018-05-09T22:27:26.196Z,65.34
2018-05-09T22:29:05.150Z,65.46
2018-05-09T22:30:43.242Z,65.33
2018-05-09T22:32:21.172Z,65.40
2018-05-09T22:33:59.230Z,65.55
2018-05-09T22:35:36.930Z,65.48
2018-05-09T22:37:15.247Z,65.79
2018-05-09T22:38:52.141Z,65.98
2018-05-09T22:40:30.136Z,65.71
2018-05-09T22:42:09.385Z,65.51
2018-05-09T22:43:47.760Z,65.56
2018-05-09T22:45:26.788Z,65.69
2018-05-09T22:47:04.310Z,65.63
2018-05-09T22:48:41.994Z,65.68
2018-05-09T22:50:19.173Z,65.63
2018-05-09T22:51:56.676Z,65.68
2018-05-09T22:53:35.782Z,65.80
2018-05-09T22:55:14.325Z,65.85
2018-05-09T22:56:59.421Z,65.78
2018-05-09T22:58:38.243Z,65.98
2018-05-09T23:00:18.844Z,65.99
2018-05-09T23:01:56.604Z,66.22
2018-05-09T23:03:34.476Z,66.32
2018-05-09T23:05:12.098Z,66.63
2018-05-09T23:06:49.677Z,66.57
2018-05-09T23:08:27.164Z,66.45
2018-05-09T23:10:03.725Z,66.43
2018-05-09T23:11:41.745Z,66.46
2018-05-09T23:13:19.456Z,66.60
2018-05-09T23:14:56.172Z,66.77
2018-05-09T23:16:35.689Z,66.74
2018-05-09T23:18:13.663Z,66.94
2018-05-09T23:19:53.181Z,66.93
2018-05-09T23:21:32.023Z,67.19
2018-05-09T23:23:10.791Z,67.40
2018-05-09T23:24:48.708Z,67.65
2018-05-09T23:26:26.116Z,67.27
2018-05-09T23:28:03.854Z,67.38
2018-05-09T23:29:42.834Z,67.45
2018-05-09T23:31:20.978Z,67.44
2018-05-09T23:32:58.639Z,67.33
2018-05-09T23:34:35.298Z,67.37
2018-05-09T23:36:10.613Z,67.93
2018-05-09T23:37:48.340Z,68.01
2018-05-09T23:39:26.107Z,67.98
2018-05-09T23:41:04.264Z,68.10
2018-05-09T23:42:41.888Z,68.07
2018-05-09T23:44:20.213Z,68.01
2018-05-09T23:45:58.561Z,68.16
2018-05-09T23:47:38.885Z,68.19
2018-05-09T23:49:16.227Z,68.33
2018-05-09T23:50:54.660Z,68.53
2018-05-09T23:52:32.647Z,68.56
2018-05-09T23:54:10.278Z,68.46
2018-05-09T23:55:49.231Z,68.31
2018-05-09T23:57:27.180Z,68.25
2018-05-09T23:59:03.765Z,68.76
